Sealyon — 2CGJ2 — position and weather

sailwx.info

Track history (hours):
 
Tides and Currents Weather Stations Pressure Air Temp Water Temp Dewpoint Dewpoint Depression Visibility Wind Speed Wind Dir Waves Ship Positions

Sealyon

Last reported at 2014-Jul-25 15:33 UTC. Time now 2014-Jul-25 16:05 UTC.
Position N 43°32' E 007°03'.

Length 62 m; draft 3.6 m.

Type: Pleasure craft. MMSI: 235072538.

Date/timePositionNaut miles runAvg speedWind from/ knotsBaromVisibWave heightAir tempDewpointWater temp
2014-Jul-25 15:33N 43°32' E 007°03'0 0.0
2014-Jul-25 14:33N 43°32' E 007°03'0 0.0
2014-Jul-25 13:33N 43°32' E 007°03'0 0.0
2014-Jul-25 12:33N 43°32' E 007°03'0 0.0
2014-Jul-25 11:33N 43°32' E 007°03'0 0.0
2014-Jul-25 10:34N 43°32' E 007°03'0 0.0
2014-Jul-25 09:33N 43°32' E 007°03'0 0.0
2014-Jul-25 08:33N 43°32' E 007°03'0 0.0
2014-Jul-25 07:33N 43°32' E 007°03'0 0.0
2014-Jul-25 06:33N 43°32' E 007°03'0 0.0
2014-Jul-25 05:33N 43°32' E 007°03'0 0.0
2014-Jul-25 04:33N 43°32' E 007°03'0 0.0
2014-Jul-25 03:33N 43°32' E 007°03'0 0.0
2014-Jul-25 02:33N 43°32' E 007°03'0 0.0
2014-Jul-25 01:33N 43°32' E 007°03'0 0.0
2014-Jul-25 00:33N 43°32' E 007°03'0 0.0
2014-Jul-24 23:33N 43°32' E 007°03'0 0.0
2014-Jul-24 22:33N 43°32' E 007°03'0 0.0
2014-Jul-24 21:33N 43°32' E 007°03'0 0.0
2014-Jul-24 20:33N 43°32' E 007°03'0 0.0
2014-Jul-24 19:33N 43°32' E 007°03'1 1.5
2014-Jul-24 18:33N 43°33' E 007°01'5 4.0
2014-Jul-24 17:17N 43°29' E 006°56'0 0.0
2014-Jul-24 16:20N 43°29' E 006°56'0 0.0
2014-Jul-24 15:12N 43°29' E 006°56'0 0.0
2014-Jul-24 14:31N 43°29' E 006°56'6 6.8
2014-Jul-24 13:33N 43°23' E 006°60'4 4.4
2014-Jul-24 12:33N 43°19' E 007°02'1010.2
2014-Jul-24 11:33N 43°25' E 006°51'0 0.1
2014-Jul-24 10:25N 43°25' E 006°51'0 0.0
2014-Jul-24 09:32N 43°25' E 006°51'0 0.0
2014-Jul-24 08:32N 43°25' E 006°51'0 0.0
2014-Jul-24 07:27N 43°25' E 006°51'0 0.0
2014-Jul-24 06:31N 43°25' E 006°51'0 0.0
2014-Jul-24 05:26N 43°25' E 006°51'0 0.0
2014-Jul-24 04:32N 43°25' E 006°51'0 0.0
2014-Jul-24 03:33N 43°25' E 006°51'0 0.0
2014-Jul-24 02:34N 43°25' E 006°51'0 0.0
2014-Jul-24 01:31N 43°25' E 006°51'0 0.0
2014-Jul-24 00:32N 43°25' E 006°51'0 0.0
2014-Jul-23 23:33N 43°25' E 006°51'0 0.0
2014-Jul-23 22:24N 43°25' E 006°51'0 0.0
2014-Jul-23 21:25N 43°25' E 006°51'0 0.0
2014-Jul-23 20:26N 43°25' E 006°51'0 0.0
2014-Jul-23 19:32N 43°25' E 006°51'0 0.0
2014-Jul-23 18:27N 43°25' E 006°51'0 0.0
2014-Jul-23 17:31N 43°25' E 006°51'0 0.0
2014-Jul-23 16:28N 43°25' E 006°51'0 0.0
2014-Jul-23 15:32N 43°25' E 006°51'0 0.0
2014-Jul-23 14:33N 43°25' E 006°51'0 0.0
2014-Jul-23 13:33N 43°25' E 006°51'0 0.0
2014-Jul-23 12:31N 43°25' E 006°51'0 0.0
2014-Jul-23 11:29N 43°25' E 006°51'1 0.8
2014-Jul-23 10:31N 43°25' E 006°52'0 0.0
2014-Jul-23 09:32N 43°25' E 006°52'0 0.0
2014-Jul-23 08:33N 43°25' E 006°52'8 8.4
2014-Jul-23 07:33N 43°29' E 007°02'3 3.0
2014-Jul-23 06:29N 43°32' E 007°03'0 0.0
2014-Jul-23 05:30N 43°32' E 007°03'0 0.0
2014-Jul-23 04:31N 43°32' E 007°03'0 0.0
2014-Jul-23 03:25N 43°32' E 007°03'0 0.0
2014-Jul-23 02:32N 43°32' E 007°03'0 0.0
2014-Jul-23 01:33N 43°32' E 007°03'0 0.0
2014-Jul-23 00:33N 43°32' E 007°03'0 0.0
2014-Jul-22 23:28N 43°32' E 007°03'0 0.0
2014-Jul-22 22:32N 43°32' E 007°03'0 0.0
2014-Jul-22 21:29N 43°32' E 007°03'0 0.0
2014-Jul-22 20:30N 43°32' E 007°03'0 0.0
2014-Jul-22 19:25N 43°32' E 007°03'0 0.0
2014-Jul-22 18:19N 43°32' E 007°03'0 0.0
2014-Jul-22 17:26N 43°32' E 007°03'0 0.0
2014-Jul-22 16:33N 43°32' E 007°03'0 0.0
2014-Jul-22 15:33N 43°32' E 007°03'0 0.0
2014-Jul-22 14:22N 43°32' E 007°03'0 0.0
2014-Jul-22 13:05N 43°32' E 007°03'0 0.0
2014-Jul-22 12:29N 43°32' E 007°03'0 0.0
2014-Jul-22 11:30N 43°32' E 007°03'0 0.0
2014-Jul-22 10:31N 43°32' E 007°03'0 0.0
2014-Jul-22 09:31N 43°32' E 007°03'0 0.0
2014-Jul-22 08:32N 43°32' E 007°03'2 1.9
2014-Jul-22 07:33N 43°30' E 007°04'3 1.2
2014-Jul-22 05:15N 43°32' E 007°02'0 0.0
2014-Jul-22 03:28N 43°32' E 007°02'0 0.0
2014-Jul-22 01:11N 43°32' E 007°02'0 0.0
2014-Jul-22 00:12N 43°32' E 007°02'0 0.0
2014-Jul-21 20:26N 43°32' E 007°02'0 0.0
2014-Jul-21 20:09N 43°32' E 007°02'0 0.0
2014-Jul-21 19:15N 43°32' E 007°02'0 0.0
2014-Jul-21 18:28N 43°32' E 007°02'0 0.0
2014-Jul-21 17:34N 43°32' E 007°02'0 0.0
2014-Jul-21 16:33N 43°32' E 007°02'3 2.7
2014-Jul-21 15:33N 43°30' E 007°03'1313.0
2014-Jul-21 14:34N 43°38' E 007°16'4 4.4
2014-Jul-21 13:34N 43°42' E 007°19'0 0.0
2014-Jul-21 12:33N 43°42' E 007°19'0 0.0
2014-Jul-21 11:33N 43°42' E 007°19'0 0.0
2014-Jul-21 10:33N 43°42' E 007°19'0 0.0
2014-Jul-21 09:33N 43°42' E 007°19'0 0.0
2014-Jul-21 08:32N 43°42' E 007°19'0 0.0
2014-Jul-21 07:34N 43°42' E 007°19'0 0.0
2014-Jul-21 06:34N 43°42' E 007°19'0 0.0
2014-Jul-21 05:33N 43°42' E 007°19'0 0.0
2014-Jul-21 04:33N 43°42' E 007°19'0 0.0
2014-Jul-21 03:33N 43°42' E 007°19'0 0.0
2014-Jul-21 02:33N 43°42' E 007°19'0 0.0
2014-Jul-21 01:34N 43°42' E 007°19'0 0.0
2014-Jul-21 00:33N 43°42' E 007°19'0 0.0
2014-Jul-20 23:34N 43°42' E 007°19'0 0.0
2014-Jul-20 22:33N 43°42' E 007°19'0 0.0
2014-Jul-20 21:34N 43°42' E 007°19'0 0.0
2014-Jul-20 20:34N 43°42' E 007°19'0 0.0
2014-Jul-20 19:34N 43°42' E 007°19'0 0.0
2014-Jul-20 18:34N 43°42' E 007°19'0 0.0
2014-Jul-20 17:33N 43°42' E 007°19'0 0.0
2014-Jul-20 16:13N 43°42' E 007°19'0 0.0
2014-Jul-20 15:33N 43°42' E 007°19'2 1.9
2014-Jul-20 14:30N 43°43' E 007°21'0 0.0
2014-Jul-20 12:32N 43°43' E 007°21'0 0.0
2014-Jul-20 11:20N 43°43' E 007°21'0 0.0
2014-Jul-20 02:20N 43°43' E 007°21'0 0.0
2014-Jul-20 01:21N 43°43' E 007°21'0 0.0
2014-Jul-20 00:16N 43°43' E 007°21'0 0.0
2014-Jul-19 23:10N 43°43' E 007°21'0 0.0
2014-Jul-19 22:29N 43°43' E 007°21'0 0.0
2014-Jul-19 21:18N 43°43' E 007°21'0 0.0
2014-Jul-19 20:30N 43°43' E 007°21'0 0.0
2014-Jul-19 19:32N 43°43' E 007°21'2 0.4
2014-Jul-19 15:09N 43°41' E 007°21'0 0.0
2014-Jul-19 13:10N 43°41' E 007°21'0 0.0
2014-Jul-19 12:29N 43°41' E 007°21'0 0.0
2014-Jul-19 11:32N 43°41' E 007°21'0 0.0
2014-Jul-19 10:24N 43°41' E 007°21'0 0.0
2014-Jul-19 09:25N 43°41' E 007°21'0 0.0
2014-Jul-19 08:11N 43°41' E 007°21'0 0.0
2014-Jul-19 07:29N 43°41' E 007°21'0 0.0
2014-Jul-19 06:33N 43°41' E 007°21'0 0.0
2014-Jul-19 02:32N 43°41' E 007°21'0 0.0
2014-Jul-19 01:24N 43°41' E 007°21'0 0.0
2014-Jul-19 00:31N 43°41' E 007°21'0 0.0
2014-Jul-18 22:17N 43°41' E 007°21'0 0.0
2014-Jul-18 20:16N 43°41' E 007°21'0 0.0
2014-Jul-18 17:21N 43°41' E 007°21'0 0.0
2014-Jul-18 16:33N 43°41' E 007°21'0 0.0
2014-Jul-18 13:20N 43°41' E 007°21'0 0.0
2014-Jul-18 11:33N 43°41' E 007°21'0 0.0
2014-Jul-18 09:05N 43°41' E 007°21'0 0.0
2014-Jul-18 08:32N 43°41' E 007°21'0 0.1
2014-Jul-18 06:12N 43°42' E 007°21'811.9
2014-Jul-18 05:32N 43°43' E 007°32'1313.4
2014-Jul-18 04:33N 43°45' E 007°50'1714.1
2014-Jul-18 03:21N 43°49' E 008°13'1113.7
2014-Jul-18 02:33N 43°55' E 008°25'1413.5
2014-Jul-18 01:33N 44°02' E 008°41'1313.0
2014-Jul-18 00:33N 44°09' E 008°56'1312.5
2014-Jul-17 23:33N 44°16' E 009°11'3 0.5
2014-Jul-17 17:34N 44°18' E 009°13'0 0.0
2014-Jul-17 16:31N 44°18' E 009°14'0 0.0
2014-Jul-17 15:26N 44°18' E 009°14'0 0.0
2014-Jul-17 14:30N 44°18' E 009°13'0 0.0
2014-Jul-17 13:33N 44°18' E 009°13'0 0.0
2014-Jul-17 12:31N 44°18' E 009°13'0 0.0
2014-Jul-17 11:32N 44°18' E 009°13'0 0.0
2014-Jul-17 10:32N 44°18' E 009°13'0 0.0
2014-Jul-17 09:30N 44°18' E 009°13'1 0.5
2014-Jul-17 08:27N 44°18' E 009°13'0 0.0
2014-Jul-17 07:22N 44°18' E 009°13'0 0.0
2014-Jul-17 06:29N 44°18' E 009°13'0 0.0
2014-Jul-17 05:12N 44°18' E 009°13'0 0.0
2014-Jul-17 04:30N 44°18' E 009°13'0 0.0
2014-Jul-17 03:13N 44°18' E 009°13'0 0.0
2014-Jul-17 02:31N 44°18' E 009°13'0 0.0
2014-Jul-17 01:20N 44°18' E 009°13'0 0.0
2014-Jul-17 00:24N 44°18' E 009°13'0 0.0
2014-Jul-16 23:10N 44°18' E 009°13'0 0.0
2014-Jul-16 22:22N 44°18' E 009°13'0 0.0
2014-Jul-16 21:05N 44°18' E 009°13'0 0.0
2014-Jul-16 20:06N 44°18' E 009°13'0 0.0
2014-Jul-16 17:22N 44°18' E 009°13'0 0.0
2014-Jul-16 16:26N 44°18' E 009°13'0 0.0
2014-Jul-16 15:21N 44°18' E 009°13'0 0.0
2014-Jul-16 14:24N 44°18' E 009°13'0 0.0
2014-Jul-16 13:25N 44°18' E 009°13'0 0.0
2014-Jul-16 12:29N 44°18' E 009°13'0 0.0
2014-Jul-16 11:06N 44°18' E 009°13'0 0.0
2014-Jul-16 10:30N 44°18' E 009°13'0 0.0
2014-Jul-16 09:22N 44°18' E 009°13'0 0.0
2014-Jul-16 08:23N 44°18' E 009°13'0 0.0
2014-Jul-16 07:32N 44°18' E 009°13'0 0.0
2014-Jul-16 06:27N 44°18' E 009°13'0 0.0
2014-Jul-16 05:33N 44°18' E 009°13'0 0.0
2014-Jul-16 04:16N 44°18' E 009°13'0 0.0
2014-Jul-16 02:06N 44°18' E 009°13'0 0.0
2014-Jul-15 23:14N 44°18' E 009°13'0 0.0
2014-Jul-15 22:23N 44°18' E 009°13'0 0.0
2014-Jul-15 21:21N 44°18' E 009°13'0 0.0
2014-Jul-15 18:20N 44°18' E 009°13'0 0.0
2014-Jul-15 17:29N 44°18' E 009°13'0 0.0
2014-Jul-15 16:30N 44°18' E 009°13'  
Track history (hours):
 
Tides and Currents Weather Stations Pressure Air Temp Water Temp Dewpoint Dewpoint Depression Visibility Wind Speed Wind Dir Waves Ship Positions

Sealyon

Last reported at 2014-Jul-25 15:33 UTC. Time now 2014-Jul-25 16:05 UTC.
Position N 43°32' E 007°03'.

Length 62 m; draft 3.6 m.

Type: Pleasure craft. MMSI: 235072538.

Date/timePositionNaut miles runAvg speedWind from/ knotsBaromVisibWave heightAir tempDewpointWater temp
2014-Jul-25 15:33N 43°32' E 007°03'0 0.0
2014-Jul-25 14:33N 43°32' E 007°03'0 0.0
2014-Jul-25 13:33N 43°32' E 007°03'0 0.0
2014-Jul-25 12:33N 43°32' E 007°03'0 0.0
2014-Jul-25 11:33N 43°32' E 007°03'0 0.0
2014-Jul-25 10:34N 43°32' E 007°03'0 0.0
2014-Jul-25 09:33N 43°32' E 007°03'0 0.0
2014-Jul-25 08:33N 43°32' E 007°03'0 0.0
2014-Jul-25 07:33N 43°32' E 007°03'0 0.0
2014-Jul-25 06:33N 43°32' E 007°03'0 0.0
2014-Jul-25 05:33N 43°32' E 007°03'0 0.0
2014-Jul-25 04:33N 43°32' E 007°03'0 0.0
2014-Jul-25 03:33N 43°32' E 007°03'0 0.0
2014-Jul-25 02:33N 43°32' E 007°03'0 0.0
2014-Jul-25 01:33N 43°32' E 007°03'0 0.0
2014-Jul-25 00:33N 43°32' E 007°03'0 0.0
2014-Jul-24 23:33N 43°32' E 007°03'0 0.0
2014-Jul-24 22:33N 43°32' E 007°03'0 0.0
2014-Jul-24 21:33N 43°32' E 007°03'0 0.0
2014-Jul-24 20:33N 43°32' E 007°03'0 0.0
2014-Jul-24 19:33N 43°32' E 007°03'1 1.5
2014-Jul-24 18:33N 43°33' E 007°01'5 4.0
2014-Jul-24 17:17N 43°29' E 006°56'0 0.0
2014-Jul-24 16:20N 43°29' E 006°56'0 0.0
2014-Jul-24 15:12N 43°29' E 006°56'0 0.0
2014-Jul-24 14:31N 43°29' E 006°56'6 6.8
2014-Jul-24 13:33N 43°23' E 006°60'4 4.4
2014-Jul-24 12:33N 43°19' E 007°02'1010.2
2014-Jul-24 11:33N 43°25' E 006°51'0 0.1
2014-Jul-24 10:25N 43°25' E 006°51'0 0.0
2014-Jul-24 09:32N 43°25' E 006°51'0 0.0
2014-Jul-24 08:32N 43°25' E 006°51'0 0.0
2014-Jul-24 07:27N 43°25' E 006°51'0 0.0
2014-Jul-24 06:31N 43°25' E 006°51'0 0.0
2014-Jul-24 05:26N 43°25' E 006°51'0 0.0
2014-Jul-24 04:32N 43°25' E 006°51'0 0.0
2014-Jul-24 03:33N 43°25' E 006°51'0 0.0
2014-Jul-24 02:34N 43°25' E 006°51'0 0.0
2014-Jul-24 01:31N 43°25' E 006°51'0 0.0
2014-Jul-24 00:32N 43°25' E 006°51'0 0.0
2014-Jul-23 23:33N 43°25' E 006°51'0 0.0
2014-Jul-23 22:24N 43°25' E 006°51'0 0.0
2014-Jul-23 21:25N 43°25' E 006°51'0 0.0
2014-Jul-23 20:26N 43°25' E 006°51'0 0.0
2014-Jul-23 19:32N 43°25' E 006°51'0 0.0
2014-Jul-23 18:27N 43°25' E 006°51'0 0.0
2014-Jul-23 17:31N 43°25' E 006°51'0 0.0
2014-Jul-23 16:28N 43°25' E 006°51'0 0.0
2014-Jul-23 15:32N 43°25' E 006°51'0 0.0
2014-Jul-23 14:33N 43°25' E 006°51'0 0.0
2014-Jul-23 13:33N 43°25' E 006°51'0 0.0
2014-Jul-23 12:31N 43°25' E 006°51'0 0.0
2014-Jul-23 11:29N 43°25' E 006°51'1 0.8
2014-Jul-23 10:31N 43°25' E 006°52'0 0.0
2014-Jul-23 09:32N 43°25' E 006°52'0 0.0
2014-Jul-23 08:33N 43°25' E 006°52'8 8.4
2014-Jul-23 07:33N 43°29' E 007°02'3 3.0
2014-Jul-23 06:29N 43°32' E 007°03'0 0.0
2014-Jul-23 05:30N 43°32' E 007°03'0 0.0
2014-Jul-23 04:31N 43°32' E 007°03'0 0.0
2014-Jul-23 03:25N 43°32' E 007°03'0 0.0
2014-Jul-23 02:32N 43°32' E 007°03'0 0.0
2014-Jul-23 01:33N 43°32' E 007°03'0 0.0
2014-Jul-23 00:33N 43°32' E 007°03'0 0.0
2014-Jul-22 23:28N 43°32' E 007°03'0 0.0
2014-Jul-22 22:32N 43°32' E 007°03'0 0.0
2014-Jul-22 21:29N 43°32' E 007°03'0 0.0
2014-Jul-22 20:30N 43°32' E 007°03'0 0.0
2014-Jul-22 19:25N 43°32' E 007°03'0 0.0
2014-Jul-22 18:19N 43°32' E 007°03'0 0.0
2014-Jul-22 17:26N 43°32' E 007°03'0 0.0
2014-Jul-22 16:33N 43°32' E 007°03'0 0.0
2014-Jul-22 15:33N 43°32' E 007°03'0 0.0
2014-Jul-22 14:22N 43°32' E 007°03'0 0.0
2014-Jul-22 13:05N 43°32' E 007°03'0 0.0
2014-Jul-22 12:29N 43°32' E 007°03'0 0.0
2014-Jul-22 11:30N 43°32' E 007°03'0 0.0
2014-Jul-22 10:31N 43°32' E 007°03'0 0.0
2014-Jul-22 09:31N 43°32' E 007°03'0 0.0
2014-Jul-22 08:32N 43°32' E 007°03'2 1.9
2014-Jul-22 07:33N 43°30' E 007°04'3 1.2
2014-Jul-22 05:15N 43°32' E 007°02'0 0.0
2014-Jul-22 03:28N 43°32' E 007°02'0 0.0
2014-Jul-22 01:11N 43°32' E 007°02'0 0.0
2014-Jul-22 00:12N 43°32' E 007°02'0 0.0
2014-Jul-21 20:26N 43°32' E 007°02'0 0.0
2014-Jul-21 20:09N 43°32' E 007°02'0 0.0
2014-Jul-21 19:15N 43°32' E 007°02'0 0.0
2014-Jul-21 18:28N 43°32' E 007°02'0 0.0
2014-Jul-21 17:34N 43°32' E 007°02'0 0.0
2014-Jul-21 16:33N 43°32' E 007°02'3 2.7
2014-Jul-21 15:33N 43°30' E 007°03'1313.0
2014-Jul-21 14:34N 43°38' E 007°16'4 4.4
2014-Jul-21 13:34N 43°42' E 007°19'0 0.0
2014-Jul-21 12:33N 43°42' E 007°19'0 0.0
2014-Jul-21 11:33N 43°42' E 007°19'0 0.0
2014-Jul-21 10:33N 43°42' E 007°19'0 0.0
2014-Jul-21 09:33N 43°42' E 007°19'0 0.0
2014-Jul-21 08:32N 43°42' E 007°19'0 0.0
2014-Jul-21 07:34N 43°42' E 007°19'0 0.0
2014-Jul-21 06:34N 43°42' E 007°19'0 0.0
2014-Jul-21 05:33N 43°42' E 007°19'0 0.0
2014-Jul-21 04:33N 43°42' E 007°19'0 0.0
2014-Jul-21 03:33N 43°42' E 007°19'0 0.0
2014-Jul-21 02:33N 43°42' E 007°19'0 0.0
2014-Jul-21 01:34N 43°42' E 007°19'0 0.0
2014-Jul-21 00:33N 43°42' E 007°19'0 0.0
2014-Jul-20 23:34N 43°42' E 007°19'0 0.0
2014-Jul-20 22:33N 43°42' E 007°19'0 0.0
2014-Jul-20 21:34N 43°42' E 007°19'0 0.0
2014-Jul-20 20:34N 43°42' E 007°19'0 0.0
2014-Jul-20 19:34N 43°42' E 007°19'0 0.0
2014-Jul-20 18:34N 43°42' E 007°19'0 0.0
2014-Jul-20 17:33N 43°42' E 007°19'0 0.0
2014-Jul-20 16:13N 43°42' E 007°19'0 0.0
2014-Jul-20 15:33N 43°42' E 007°19'2 1.9
2014-Jul-20 14:30N 43°43' E 007°21'0 0.0
2014-Jul-20 12:32N 43°43' E 007°21'0 0.0
2014-Jul-20 11:20N 43°43' E 007°21'0 0.0
2014-Jul-20 02:20N 43°43' E 007°21'0 0.0
2014-Jul-20 01:21N 43°43' E 007°21'0 0.0
2014-Jul-20 00:16N 43°43' E 007°21'0 0.0
2014-Jul-19 23:10N 43°43' E 007°21'0 0.0
2014-Jul-19 22:29N 43°43' E 007°21'0 0.0
2014-Jul-19 21:18N 43°43' E 007°21'0 0.0
2014-Jul-19 20:30N 43°43' E 007°21'0 0.0
2014-Jul-19 19:32N 43°43' E 007°21'2 0.4
2014-Jul-19 15:09N 43°41' E 007°21'0 0.0
2014-Jul-19 13:10N 43°41' E 007°21'0 0.0
2014-Jul-19 12:29N 43°41' E 007°21'0 0.0
2014-Jul-19 11:32N 43°41' E 007°21'0 0.0
2014-Jul-19 10:24N 43°41' E 007°21'0 0.0
2014-Jul-19 09:25N 43°41' E 007°21'0 0.0
2014-Jul-19 08:11N 43°41' E 007°21'0 0.0
2014-Jul-19 07:29N 43°41' E 007°21'0 0.0
2014-Jul-19 06:33N 43°41' E 007°21'0 0.0
2014-Jul-19 02:32N 43°41' E 007°21'0 0.0
2014-Jul-19 01:24N 43°41' E 007°21'0 0.0
2014-Jul-19 00:31N 43°41' E 007°21'0 0.0
2014-Jul-18 22:17N 43°41' E 007°21'0 0.0
2014-Jul-18 20:16N 43°41' E 007°21'0 0.0
2014-Jul-18 17:21N 43°41' E 007°21'0 0.0
2014-Jul-18 16:33N 43°41' E 007°21'0 0.0
2014-Jul-18 13:20N 43°41' E 007°21'0 0.0
2014-Jul-18 11:33N 43°41' E 007°21'0 0.0
2014-Jul-18 09:05N 43°41' E 007°21'0 0.0
2014-Jul-18 08:32N 43°41' E 007°21'0 0.1
2014-Jul-18 06:12N 43°42' E 007°21'811.9
2014-Jul-18 05:32N 43°43' E 007°32'1313.4
2014-Jul-18 04:33N 43°45' E 007°50'1714.1
2014-Jul-18 03:21N 43°49' E 008°13'1113.7
2014-Jul-18 02:33N 43°55' E 008°25'1413.5
2014-Jul-18 01:33N 44°02' E 008°41'1313.0
2014-Jul-18 00:33N 44°09' E 008°56'1312.5
2014-Jul-17 23:33N 44°16' E 009°11'3 0.5
2014-Jul-17 17:34N 44°18' E 009°13'0 0.0
2014-Jul-17 16:31N 44°18' E 009°14'0 0.0
2014-Jul-17 15:26N 44°18' E 009°14'0 0.0
2014-Jul-17 14:30N 44°18' E 009°13'0 0.0
2014-Jul-17 13:33N 44°18' E 009°13'0 0.0
2014-Jul-17 12:31N 44°18' E 009°13'0 0.0
2014-Jul-17 11:32N 44°18' E 009°13'0 0.0
2014-Jul-17 10:32N 44°18' E 009°13'0 0.0
2014-Jul-17 09:30N 44°18' E 009°13'1 0.5
2014-Jul-17 08:27N 44°18' E 009°13'0 0.0
2014-Jul-17 07:22N 44°18' E 009°13'0 0.0
2014-Jul-17 06:29N 44°18' E 009°13'0 0.0
2014-Jul-17 05:12N 44°18' E 009°13'0 0.0
2014-Jul-17 04:30N 44°18' E 009°13'0 0.0
2014-Jul-17 03:13N 44°18' E 009°13'0 0.0
2014-Jul-17 02:31N 44°18' E 009°13'0 0.0
2014-Jul-17 01:20N 44°18' E 009°13'0 0.0
2014-Jul-17 00:24N 44°18' E 009°13'0 0.0
2014-Jul-16 23:10N 44°18' E 009°13'0 0.0
2014-Jul-16 22:22N 44°18' E 009°13'0 0.0
2014-Jul-16 21:05N 44°18' E 009°13'0 0.0
2014-Jul-16 20:06N 44°18' E 009°13'0 0.0
2014-Jul-16 17:22N 44°18' E 009°13'0 0.0
2014-Jul-16 16:26N 44°18' E 009°13'0 0.0
2014-Jul-16 15:21N 44°18' E 009°13'0 0.0
2014-Jul-16 14:24N 44°18' E 009°13'0 0.0
2014-Jul-16 13:25N 44°18' E 009°13'0 0.0
2014-Jul-16 12:29N 44°18' E 009°13'0 0.0
2014-Jul-16 11:06N 44°18' E 009°13'0 0.0
2014-Jul-16 10:30N 44°18' E 009°13'0 0.0
2014-Jul-16 09:22N 44°18' E 009°13'0 0.0
2014-Jul-16 08:23N 44°18' E 009°13'0 0.0
2014-Jul-16 07:32N 44°18' E 009°13'0 0.0
2014-Jul-16 06:27N 44°18' E 009°13'0 0.0
2014-Jul-16 05:33N 44°18' E 009°13'0 0.0
2014-Jul-16 04:16N 44°18' E 009°13'0 0.0
2014-Jul-16 02:06N 44°18' E 009°13'0 0.0
2014-Jul-15 23:14N 44°18' E 009°13'0 0.0
2014-Jul-15 22:23N 44°18' E 009°13'0 0.0
2014-Jul-15 21:21N 44°18' E 009°13'0 0.0
2014-Jul-15 18:20N 44°18' E 009°13'0 0.0
2014-Jul-15 17:29N 44°18' E 009°13'0 0.0
2014-Jul-15 16:30N 44°18' E 009°13'  

Dump ship's entire track history